Time;durP1;ratioP1;P1;durP2;ratioP2;P2;SDS_P1;SDS_P2;PMS_P1;PMS_P2;Temp;Humidity;BMP_temperature;BMP_pressure;BME280_temperature;BME280_humidity;BME280_pressure;Samples;Min_cycle;Max_cycle;Signal;HPM_P1;HPM_P2
2022/03/16 00:00:10;;;;;;;49.70;28.48;;;7.90;80.50;;;;;;5036208;28;20057;-87
2022/03/16 00:02:44;;;;;;;47.80;27.77;;;7.90;80.50;;;;;;5037821;28;20046;-87
2022/03/16 00:05:11;;;;;;;47.22;26.58;;;7.90;80.50;;;;;;5037424;28;20107;-87
2022/03/16 00:07:39;;;;;;;44.33;25.77;;;7.90;80.50;;;;;;5037880;28;20045;-87
2022/03/16 00:10:07;;;;;;;44.63;25.40;;;7.90;80.50;;;;;;5037793;28;20045;-87
2022/03/16 00:12:39;;;;;;;39.78;24.08;;;7.90;80.50;;;;;;5034843;28;20523;-87
2022/03/16 00:15:07;;;;;;;44.15;24.60;;;7.90;80.40;;;;;;5034572;28;20045;-87
2022/03/16 00:17:34;;;;;;;42.28;25.05;;;7.90;80.40;;;;;;5037567;28;20050;-87
2022/03/16 00:20:01;;;;;;;36.72;22.83;;;7.90;80.40;;;;;;5037122;28;20136;-87
2022/03/16 00:22:28;;;;;;;38.05;23.83;;;7.80;80.40;;;;;;5037516;28;20506;-87
2022/03/16 00:24:55;;;;;;;40.85;23.55;;;7.80;80.40;;;;;;5037449;28;20049;-87
2022/03/16 00:27:22;;;;;;;61.33;29.90;;;7.90;80.30;;;;;;5017353;28;20046;-87
2022/03/16 00:29:49;;;;;;;42.83;25.52;;;7.90;80.30;;;;;;5039216;28;20536;-87
2022/03/16 00:32:16;;;;;;;47.35;26.35;;;7.80;80.30;;;;;;5037467;28;20068;-87
2022/03/16 00:34:43;;;;;;;40.60;24.90;;;7.80;80.30;;;;;;5036821;28;20130;-87
2022/03/16 00:37:10;;;;;;;36.72;24.23;;;7.80;80.30;;;;;;5037232;28;20052;-87
2022/03/16 00:39:37;;;;;;;37.80;25.60;;;7.80;80.30;;;;;;5034623;28;20045;-87
2022/03/16 00:42:04;;;;;;;38.17;24.45;;;7.80;80.30;;;;;;5036011;28;20103;-87
2022/03/16 00:44:35;;;;;;;38.35;23.90;;;7.70;80.30;;;;;;5037503;28;20128;-87
2022/03/16 00:47:05;;;;;;;37.65;25.10;;;7.70;80.30;;;;;;5037073;28;20041;-87
2022/03/16 00:49:33;;;;;;;37.88;23.02;;;7.70;80.30;;;;;;5036649;28;20057;-87
2022/03/16 00:52:00;;;;;;;34.22;22.27;;;7.70;80.40;;;;;;5034213;28;20055;-87
2022/03/16 00:54:30;;;;;;;36.35;23.17;;;7.70;80.40;;;;;;5033000;28;20042;-87
2022/03/16 00:56:58;;;;;;;33.85;22.33;;;7.70;80.40;;;;;;5037000;28;20049;-87
2022/03/16 00:59:25;;;;;;;29.83;20.90;;;7.70;80.40;;;;;;5037577;28;20119;-87
2022/03/16 01:01:52;;;;;;;30.45;20.67;;;7.70;80.40;;;;;;5036801;28;20049;-87
2022/03/16 01:04:20;;;;;;;29.00;19.95;;;7.70;80.50;;;;;;5036358;28;20567;-87
2022/03/16 01:06:47;;;;;;;27.10;18.95;;;7.70;80.50;;;;;;5034291;28;20048;-87
2022/03/16 01:09:13;;;;;;;26.35;19.40;;;7.70;80.50;;;;;;5032790;28;20061;-87
2022/03/16 01:11:40;;;;;;;32.53;22.70;;;7.70;80.60;;;;;;5038394;28;20049;-87
2022/03/16 01:14:08;;;;;;;31.60;22.27;;;7.70;80.60;;;;;;5036413;28;20461;-87
2022/03/16 01:16:36;;;;;;;35.25;24.45;;;7.70;80.60;;;;;;5036170;28;20464;-87
2022/03/16 01:19:04;;;;;;;36.75;25.73;;;7.70;80.70;;;;;;5036462;28;20053;-87
2022/03/16 01:21:31;;;;;;;35.97;24.75;;;7.70;80.60;;;;;;5033120;28;20052;-87
2022/03/16 01:23:58;;;;;;;53.90;34.28;;;7.70;80.70;;;;;;5036577;28;20095;-87
2022/03/16 01:26:26;;;;;;;40.15;27.60;;;7.70;80.70;;;;;;5066798;28;20045;-86
2022/03/16 01:28:53;;;;;;;39.20;27.60;;;7.70;80.70;;;;;;5035971;28;21623;-88
2022/03/16 01:31:20;;;;;;;52.22;32.78;;;7.70;80.70;;;;;;5036014;28;20042;-87
2022/03/16 01:33:47;;;;;;;46.22;30.85;;;7.70;80.80;;;;;;5034976;28;20048;-87
2022/03/16 01:36:14;;;;;;;40.75;28.65;;;7.70;80.70;;;;;;5032774;28;20058;-86
2022/03/16 01:38:41;;;;;;;42.05;29.55;;;7.70;80.80;;;;;;5038150;28;20099;-86
2022/03/16 01:41:08;;;;;;;58.90;38.72;;;7.70;80.80;;;;;;5036027;28;20049;-87
2022/03/16 01:43:35;;;;;;;50.55;35.13;;;7.70;80.80;;;;;;5035879;28;20107;-87
2022/03/16 01:46:02;;;;;;;41.33;28.92;;;7.70;80.80;;;;;;5035688;28;20103;-87
2022/03/16 01:48:29;;;;;;;39.03;28.15;;;7.70;80.80;;;;;;5032439;28;20080;-87
2022/03/16 01:50:57;;;;;;;43.42;30.48;;;7.70;80.80;;;;;;5036187;28;20472;-87
2022/03/16 01:53:24;;;;;;;46.95;32.17;;;7.70;80.80;;;;;;5036305;28;20050;-87
2022/03/16 01:55:51;;;;;;;48.40;32.80;;;7.70;80.80;;;;;;5035788;28;20465;-87
2022/03/16 01:58:19;;;;;;;67.75;43.80;;;7.70;80.90;;;;;;5035803;28;20049;-87
2022/03/16 02:00:46;;;;;;;56.25;37.60;;;7.80;80.90;;;;;;5034089;28;20398;-87
2022/03/16 02:03:14;;;;;;;50.70;35.55;;;7.70;80.90;;;;;;5032279;28;20104;-87
2022/03/16 02:05:41;;;;;;;49.85;36.33;;;7.70;80.90;;;;;;5037515;28;20151;-87
2022/03/16 02:08:10;;;;;;;44.72;32.88;;;7.70;80.90;;;;;;5035580;28;20057;-88
2022/03/16 02:10:39;;;;;;;44.63;33.22;;;7.70;80.90;;;;;;5035472;28;20045;-87
2022/03/16 02:13:09;;;;;;;47.25;31.83;;;7.70;80.90;;;;;;5035438;28;20045;-87
2022/03/16 02:15:36;;;;;;;40.97;30.90;;;7.80;80.90;;;;;;5031485;28;20045;-87
2022/03/16 02:18:04;;;;;;;39.28;29.30;;;7.80;80.90;;;;;;5033986;28;20053;-86
2022/03/16 02:20:31;;;;;;;38.70;29.35;;;7.80;81.00;;;;;;5036875;28;20422;-87
2022/03/16 02:23:00;;;;;;;38.45;28.73;;;7.80;81.00;;;;;;5035293;28;20506;-87
2022/03/16 02:25:29;;;;;;;39.63;29.65;;;7.80;80.90;;;;;;5035245;28;20057;-87
2022/03/16 02:27:57;;;;;;;32.88;27.15;;;7.80;81.00;;;;;;5035172;28;20056;-87
2022/03/16 02:30:26;;;;;;;36.45;28.73;;;7.80;81.00;;;;;;5030642;28;20112;-87
2022/03/16 02:32:54;;;;;;;35.63;28.08;;;7.70;81.00;;;;;;5036195;28;20045;-87
2022/03/16 02:35:22;;;;;;;37.97;28.17;;;7.70;81.00;;;;;;5034151;28;20045;-86
2022/03/16 02:37:49;;;;;;;34.67;26.55;;;7.80;81.00;;;;;;5035076;28;20049;-87
2022/03/16 02:40:18;;;;;;;34.97;26.40;;;7.80;81.10;;;;;;5034992;28;20046;-87
2022/03/16 02:42:45;;;;;;;30.90;25.17;;;7.70;81.10;;;;;;5033729;28;20055;-87
2022/03/16 02:45:12;;;;;;;30.80;23.73;;;7.70;81.10;;;;;;5031490;28;20143;-87
2022/03/16 02:47:40;;;;;;;31.52;25.20;;;7.70;81.10;;;;;;5036800;28;20461;-87
2022/03/16 02:50:08;;;;;;;31.33;26.10;;;7.80;81.10;;;;;;5034944;28;20053;-87
2022/03/16 02:52:35;;;;;;;29.85;23.13;;;7.80;81.20;;;;;;5034714;28;20506;-87
2022/03/16 02:55:04;;;;;;;29.98;23.60;;;7.80;81.20;;;;;;5034494;28;20048;-87
2022/03/16 02:57:31;;;;;;;29.52;23.20;;;7.80;81.20;;;;;;5031515;28;20103;-87
2022/03/16 02:59:58;;;;;;;26.83;23.80;;;7.80;81.30;;;;;;5033458;28;20049;-87
2022/03/16 03:02:24;;;;;;;26.98;22.63;;;7.80;81.30;;;;;;5033380;28;20064;-87
2022/03/16 03:04:51;;;;;;;27.92;23.27;;;7.80;81.30;;;;;;5034600;28;20132;-86
2022/03/16 03:07:18;;;;;;;25.02;21.63;;;7.80;81.30;;;;;;5034779;28;20041;-87
2022/03/16 03:09:45;;;;;;;26.50;21.48;;;7.80;81.40;;;;;;5033353;28;20056;-87
2022/03/16 03:12:12;;;;;;;25.48;21.08;;;7.80;81.40;;;;;;5031571;28;20100;-87
2022/03/16 03:14:39;;;;;;;23.70;21.10;;;7.80;81.40;;;;;;5036218;28;20068;-86
2022/03/16 03:17:06;;;;;;;25.10;21.00;;;7.80;81.40;;;;;;5033324;28;20049;-86
2022/03/16 03:19:33;;;;;;;24.90;20.63;;;7.90;81.50;;;;;;5034574;28;20498;-87
2022/03/16 03:22:00;;;;;;;24.60;20.73;;;7.90;81.50;;;;;;5033428;28;20471;-87
2022/03/16 03:24:27;;;;;;;25.90;21.38;;;7.90;81.50;;;;;;5030836;28;20076;-87
2022/03/16 03:26:55;;;;;;;26.13;20.92;;;7.90;81.50;;;;;;5035351;28;20122;-87
2022/03/16 03:29:23;;;;;;;24.40;20.05;;;7.90;81.60;;;;;;5033466;28;20057;-87
2022/03/16 03:31:50;;;;;;;22.02;19.63;;;7.90;81.60;;;;;;5034445;28;20050;-87
2022/03/16 03:34:17;;;;;;;23.67;19.10;;;7.90;81.60;;;;;;5037432;28;20045;-86
2022/03/16 03:36:44;;;;;;;24.80;19.42;;;7.90;81.60;;;;;;5037000;28;20456;-86
2022/03/16 03:39:11;;;;;;;23.15;19.55;;;7.90;81.60;;;;;;5035420;28;20107;-87
2022/03/16 03:41:38;;;;;;;22.00;18.67;;;7.90;81.60;;;;;;5039936;28;20049;-87
2022/03/16 03:44:05;;;;;;;21.58;19.00;;;7.90;81.60;;;;;;5038275;28;20509;-86
2022/03/16 03:46:32;;;;;;;25.33;19.88;;;8.00;81.70;;;;;;5037023;28;20048;-87
2022/03/16 03:48:59;;;;;;;22.95;19.40;;;8.00;81.70;;;;;;5038304;28;20048;-86
2022/03/16 03:51:26;;;;;;;21.27;18.92;;;8.00;81.70;;;;;;5034191;28;20046;-87
2022/03/16 03:53:53;;;;;;;23.48;19.17;;;8.00;81.70;;;;;;5039315;28;20049;-87
2022/03/16 03:56:20;;;;;;;22.60;18.67;;;8.00;81.70;;;;;;5035396;28;20072;-87
2022/03/16 03:58:46;;;;;;;23.63;19.98;;;8.00;81.70;;;;;;5038023;28;20567;-87
2022/03/16 04:01:15;;;;;;;21.58;18.70;;;8.00;81.70;;;;;;5037977;28;20045;-87
2022/03/16 04:03:43;;;;;;;21.25;18.30;;;8.00;81.80;;;;;;5036167;28;20422;-87
2022/03/16 04:06:11;;;;;;;23.83;19.48;;;8.00;81.80;;;;;;5035086;28;20122;-87
2022/03/16 04:08:38;;;;;;;22.52;19.08;;;8.10;81.80;;;;;;5071708;28;20046;-86
2022/03/16 04:11:05;;;;;;;23.08;18.77;;;8.10;81.90;;;;;;5037336;28;20049;-87
2022/03/16 04:13:31;;;;;;;22.33;19.13;;;8.10;81.90;;;;;;5037396;28;20564;-87
2022/03/16 04:15:59;;;;;;;23.13;19.02;;;8.10;81.90;;;;;;5037676;28;20049;-86
2022/03/16 04:18:27;;;;;;;23.83;19.30;;;8.10;82.00;;;;;;5033721;28;20562;-87
2022/03/16 04:20:54;;;;;;;24.38;19.27;;;8.10;82.00;;;;;;5038586;28;20053;-87
2022/03/16 04:23:22;;;;;;;23.10;19.10;;;8.10;82.10;;;;;;5035614;28;20050;-86
2022/03/16 04:25:49;;;;;;;25.80;19.38;;;8.10;82.10;;;;;;5037125;28;20053;-87
2022/03/16 04:28:15;;;;;;;24.35;20.00;;;8.10;82.10;;;;;;5037687;28;20064;-86
2022/03/16 04:30:43;;;;;;;24.05;20.83;;;8.10;82.10;;;;;;5035565;28;20095;-87
2022/03/16 04:33:10;;;;;;;25.10;20.10;;;8.10;82.20;;;;;;5034516;28;20136;-87
2022/03/16 04:35:37;;;;;;;23.80;20.00;;;8.10;82.20;;;;;;5039256;28;20115;-87
2022/03/16 04:38:04;;;;;;;22.42;18.60;;;8.10;82.20;;;;;;5037347;28;20041;-87
2022/03/16 04:40:30;;;;;;;23.33;18.83;;;8.10;82.30;;;;;;5036968;28;20095;-87
2022/03/16 04:42:57;;;;;;;24.63;19.73;;;8.20;82.30;;;;;;5037418;28;20057;-87
2022/03/16 04:45:24;;;;;;;23.92;20.10;;;8.10;82.30;;;;;;5031767;28;20042;-86
2022/03/16 04:47:51;;;;;;;25.35;20.30;;;8.20;82.30;;;;;;5038812;28;20053;-87
2022/03/16 04:50:19;;;;;;;24.38;20.65;;;8.20;82.30;;;;;;5034416;28;20463;-87
2022/03/16 04:52:48;;;;;;;23.17;18.92;;;8.20;82.30;;;;;;5036762;28;20395;-87
2022/03/16 04:55:15;;;;;;;24.27;20.20;;;8.10;82.30;;;;;;5036497;28;20075;-87
2022/03/16 04:57:42;;;;;;;23.88;19.05;;;8.20;82.40;;;;;;5035154;28;20045;-87
2022/03/16 05:00:10;;;;;;;24.85;20.17;;;8.20;82.40;;;;;;5034131;28;20054;-86
2022/03/16 05:02:37;;;;;;;23.42;19.60;;;8.20;82.40;;;;;;5038746;28;20502;-86
2022/03/16 05:05:05;;;;;;;22.23;18.80;;;8.10;82.40;;;;;;5036709;28;20056;-87
2022/03/16 05:07:32;;;;;;;24.95;20.50;;;8.20;82.40;;;;;;5035543;28;20049;-87
2022/03/16 05:09:59;;;;;;;26.20;20.35;;;8.20;82.40;;;;;;5036415;28;20053;-86
2022/03/16 05:12:26;;;;;;;25.60;20.73;;;8.20;82.40;;;;;;5032685;28;20049;-86
2022/03/16 05:14:52;;;;;;;24.63;20.27;;;8.20;82.40;;;;;;5038189;28;20049;-86
2022/03/16 05:17:19;;;;;;;26.35;21.48;;;8.20;82.40;;;;;;5034128;28;20054;-87
2022/03/16 05:19:48;;;;;;;23.40;19.80;;;8.20;82.40;;;;;;5036497;28;20146;-87
2022/03/16 05:22:15;;;;;;;24.92;19.70;;;8.20;82.40;;;;;;5036584;28;20049;-86
2022/03/16 05:24:42;;;;;;;26.35;21.48;;;8.20;82.40;;;;;;5034388;28;20099;-87
2022/03/16 05:27:09;;;;;;;26.58;21.48;;;8.20;82.50;;;;;;5033679;28;20107;-86
2022/03/16 05:29:36;;;;;;;28.95;22.58;;;8.20;82.50;;;;;;5036939;28;20057;-87
2022/03/16 05:32:04;;;;;;;31.27;22.48;;;8.10;82.50;;;;;;5036168;28;20410;-86
2022/03/16 05:34:31;;;;;;;25.55;21.17;;;8.20;82.50;;;;;;5036065;28;20045;-86
2022/03/16 05:36:59;;;;;;;26.92;21.65;;;8.20;82.50;;;;;;5036153;28;20075;-87
2022/03/16 05:39:26;;;;;;;27.92;22.13;;;8.20;82.60;;;;;;5031900;28;20450;-86
2022/03/16 05:41:53;;;;;;;26.67;22.25;;;8.10;82.60;;;;;;5037579;28;20045;-86
2022/03/16 05:44:20;;;;;;;29.27;23.75;;;8.10;82.60;;;;;;5033716;28;20559;-87
2022/03/16 05:46:46;;;;;;;28.27;22.60;;;8.20;82.60;;;;;;5036043;28;20054;-87
2022/03/16 05:49:13;;;;;;;26.80;21.30;;;8.10;82.70;;;;;;5035969;28;20052;-87
2022/03/16 05:51:40;;;;;;;29.33;22.70;;;8.10;82.60;;;;;;5033905;28;20103;-86
2022/03/16 05:54:07;;;;;;;29.48;22.50;;;8.20;82.70;;;;;;5033133;28;20049;-87
2022/03/16 05:56:35;;;;;;;27.73;21.95;;;8.20;82.70;;;;;;5035467;28;20045;-87
2022/03/16 05:59:02;;;;;;;31.00;23.42;;;8.20;82.60;;;;;;5034554;28;20050;-87
2022/03/16 06:01:29;;;;;;;29.35;22.80;;;8.20;82.70;;;;;;5035663;28;20468;-86
2022/03/16 06:03:56;;;;;;;27.48;21.95;;;8.10;82.70;;;;;;5035688;28;20056;-87
2022/03/16 06:06:23;;;;;;;28.08;22.70;;;8.10;82.70;;;;;;5031350;28;20053;-87
2022/03/16 06:08:50;;;;;;;28.23;22.65;;;8.20;82.70;;;;;;5043276;28;20048;-86
2022/03/16 06:11:17;;;;;;;29.17;22.67;;;8.20;82.70;;;;;;5035554;28;20049;-87
2022/03/16 06:13:44;;;;;;;30.83;23.98;;;8.10;82.70;;;;;;5035373;28;20037;-87
2022/03/16 06:16:10;;;;;;;29.92;23.10;;;8.10;82.80;;;;;;5035413;28;20056;-87
2022/03/16 06:18:37;;;;;;;32.15;24.13;;;8.20;82.80;;;;;;5032926;28;20048;-87
2022/03/16 06:21:04;;;;;;;31.95;25.38;;;8.10;82.80;;;;;;5033594;28;20513;-86
2022/03/16 06:23:31;;;;;;;29.77;24.00;;;8.20;82.80;;;;;;5035811;28;20107;-86
2022/03/16 06:25:58;;;;;;;32.95;24.83;;;8.10;82.90;;;;;;5035309;28;20056;-87
2022/03/16 06:28:25;;;;;;;36.40;26.35;;;8.10;82.80;;;;;;5035077;28;20464;-87
2022/03/16 06:30:52;;;;;;;31.50;24.55;;;8.10;82.90;;;;;;5034531;28;20107;-86
2022/03/16 06:33:19;;;;;;;37.00;25.52;;;8.10;82.90;;;;;;5031181;28;20069;-87
2022/03/16 06:35:47;;;;;;;33.13;24.40;;;8.10;82.90;;;;;;5036687;28;20061;-87
2022/03/16 06:38:15;;;;;;;31.33;24.30;;;8.10;82.90;;;;;;5035062;28;20045;-87
2022/03/16 06:40:42;;;;;;;33.22;25.48;;;8.10;83.00;;;;;;5035067;28;20050;-87
2022/03/16 06:43:09;;;;;;;35.70;25.90;;;8.10;83.00;;;;;;5035021;28;20053;-87
2022/03/16 06:45:35;;;;;;;35.75;25.55;;;8.10;83.00;;;;;;5031490;28;20474;-87
2022/03/16 06:48:03;;;;;;;33.70;25.10;;;8.10;83.00;;;;;;5049795;28;20087;-87
2022/03/16 06:50:30;;;;;;;39.97;26.02;;;8.10;83.00;;;;;;5035886;28;20056;-86
2022/03/16 06:52:58;;;;;;;32.08;24.23;;;8.10;83.10;;;;;;5034611;28;20049;-87
2022/03/16 06:55:26;;;;;;;35.78;25.88;;;8.10;83.10;;;;;;5034454;28;20052;-87
2022/03/16 06:57:54;;;;;;;35.10;26.30;;;8.10;83.10;;;;;;5033020;28;20398;-86
2022/03/16 07:00:21;;;;;;;37.28;26.80;;;8.00;83.10;;;;;;5014377;28;20049;-87
2022/03/16 07:02:56;;;;;;;37.97;26.50;;;8.10;83.10;;;;;;5031707;28;20050;-87
2022/03/16 07:05:27;;;;;;;37.45;27.60;;;8.10;83.10;;;;;;5016644;28;20057;-87
2022/03/16 07:07:58;;;;;;;33.45;25.20;;;8.10;83.20;;;;;;5020914;28;20465;-87
2022/03/16 07:10:27;;;;;;;39.33;26.90;;;8.10;83.20;;;;;;5024919;28;20049;-87
2022/03/16 07:12:54;;;;;;;35.63;25.45;;;8.10;83.20;;;;;;5025401;28;20050;-86
2022/03/16 07:15:21;;;;;;;35.00;25.83;;;8.10;83.20;;;;;;5028927;28;20053;-87
2022/03/16 07:17:48;;;;;;;38.40;26.98;;;8.10;83.20;;;;;;5027391;28;20041;-87
2022/03/16 07:20:15;;;;;;;38.08;27.25;;;8.10;83.30;;;;;;5024688;28;20084;-86
2022/03/16 07:22:42;;;;;;;39.53;27.08;;;8.10;83.30;;;;;;5029220;28;20509;-87
2022/03/16 07:25:24;;;;;;;37.55;27.02;;;8.20;83.30;;;;;;5023951;28;20162;-88
2022/03/16 07:27:51;;;;;;;46.67;28.13;;;8.20;83.30;;;;;;5015497;28;20049;-86
2022/03/16 07:30:18;;;;;;;36.55;26.58;;;8.20;83.30;;;;;;5015559;28;20054;-86
2022/03/16 07:32:46;;;;;;;41.22;27.63;;;8.20;83.30;;;;;;5016332;28;20112;-87
2022/03/16 07:35:13;;;;;;;37.28;27.50;;;8.20;83.40;;;;;;5015882;28;20050;-87
2022/03/16 07:37:42;;;;;;;43.53;28.90;;;8.20;83.40;;;;;;5017635;28;20057;-87
2022/03/16 07:40:10;;;;;;;48.75;29.90;;;8.20;83.40;;;;;;5025928;28;20049;-87
2022/03/16 07:42:37;;;;;;;44.75;29.88;;;8.20;83.50;;;;;;5013838;28;20041;-87
2022/03/16 07:45:05;;;;;;;44.67;29.48;;;8.20;83.50;;;;;;5014006;28;20057;-87
2022/03/16 07:47:32;;;;;;;46.28;30.55;;;8.30;83.50;;;;;;5017237;28;20050;-87
2022/03/16 07:50:07;;;;;;;;;;;8.30;83.60;;;;;;5016184;28;20049;-87
2022/03/16 07:52:34;;;;;;;51.22;30.80;;;8.30;83.60;;;;;;5047779;28;20429;-87
2022/03/16 07:55:01;;;;;;;52.53;32.30;;;8.30;83.70;;;;;;5019291;28;20056;-86
2022/03/16 07:57:28;;;;;;;51.85;32.70;;;8.40;83.70;;;;;;5012449;28;20041;-87
2022/03/16 07:59:56;;;;;;;54.03;32.70;;;8.40;83.80;;;;;;5046491;28;20057;-87
2022/03/16 08:02:23;;;;;;;59.00;32.25;;;8.30;83.80;;;;;;5016620;28;20414;-87
2022/03/16 08:04:50;;;;;;;52.22;32.53;;;8.40;83.90;;;;;;5015643;28;20142;-87
2022/03/16 08:07:17;;;;;;;53.17;33.90;;;8.40;84.00;;;;;;5019159;28;20573;-87
2022/03/16 08:09:44;;;;;;;51.05;32.85;;;8.40;84.00;;;;;;5014273;28;20049;-87
2022/03/16 08:12:10;;;;;;;52.92;33.08;;;8.40;84.00;;;;;;5013075;28;20057;-87
2022/03/16 08:14:38;;;;;;;48.92;31.63;;;8.40;84.10;;;;;;5015919;28;20061;-87
2022/03/16 08:17:05;;;;;;;52.25;32.53;;;8.50;84.10;;;;;;5015601;28;20053;-87
2022/03/16 08:19:32;;;;;;;50.25;32.85;;;8.50;84.10;;;;;;5017462;28;20495;-87
2022/03/16 08:21:59;;;;;;;45.50;29.73;;;8.50;84.10;;;;;;5019240;28;20053;-87
2022/03/16 08:24:26;;;;;;;52.40;31.35;;;8.50;84.10;;;;;;5017430;28;20045;-87
2022/03/16 08:27:13;;;;;;;48.92;29.73;;;8.60;84.10;;;;;;5057912;28;20045;-87
2022/03/16 08:29:39;;;;;;;50.60;33.45;;;8.60;84.10;;;;;;5019331;28;20054;-87
2022/03/16 08:32:07;;;;;;;42.47;29.05;;;8.60;84.10;;;;;;5019004;28;20050;-86
2022/03/16 08:34:34;;;;;;;48.60;30.25;;;8.70;84.10;;;;;;5025987;28;20045;-87
2022/03/16 08:37:02;;;;;;;51.50;32.78;;;8.70;84.10;;;;;;5030044;28;20057;-87
2022/03/16 08:39:29;;;;;;;50.95;31.75;;;8.70;84.10;;;;;;5016934;28;20046;-87
2022/03/16 08:41:56;;;;;;;46.08;30.25;;;8.80;84.20;;;;;;5030388;28;20060;-87
2022/03/16 08:44:24;;;;;;;41.50;28.75;;;8.80;84.20;;;;;;5019656;28;20454;-87
2022/03/16 08:46:52;;;;;;;56.65;30.48;;;8.80;84.20;;;;;;5018827;28;20042;-87
2022/03/16 08:49:18;;;;;;;45.28;31.00;;;8.80;84.20;;;;;;5018911;28;20069;-87
2022/03/16 08:51:45;;;;;;;52.28;34.20;;;8.90;84.20;;;;;;5017453;28;20103;-87
2022/03/16 08:54:13;;;;;;;53.97;34.75;;;8.90;84.20;;;;;;5015751;28;20054;-86
2022/03/16 08:56:40;;;;;;;55.33;33.67;;;8.90;84.20;;;;;;5018693;28;20084;-86
2022/03/16 08:59:07;;;;;;;52.97;33.40;;;8.90;84.20;;;;;;5018622;28;20046;-90
2022/03/16 09:01:34;;;;;;;57.53;34.80;;;9.00;84.30;;;;;;5020616;28;20053;-86
2022/03/16 09:04:02;;;;;;;58.25;35.60;;;9.00;84.30;;;;;;5028950;28;20045;-87
2022/03/16 09:06:30;;;;;;;49.85;32.53;;;9.00;84.30;;;;;;5015011;28;20116;-87
2022/03/16 09:08:57;;;;;;;58.22;35.83;;;9.00;84.40;;;;;;5017265;28;20042;-86
2022/03/16 09:11:24;;;;;;;52.75;33.97;;;9.10;84.40;;;;;;5019140;28;20053;-87
2022/03/16 09:13:51;;;;;;;59.55;34.25;;;9.10;84.40;;;;;;5020856;28;20560;-87
2022/03/16 09:16:18;;;;;;;60.80;36.15;;;9.20;84.50;;;;;;5018179;28;20061;-86
2022/03/16 09:18:47;;;;;;;59.25;36.05;;;9.20;84.50;;;;;;5015316;28;20049;-87
2022/03/16 09:21:14;;;;;;;58.47;36.60;;;9.20;84.50;;;;;;5029377;28;20111;-87
2022/03/16 09:23:41;;;;;;;54.08;35.78;;;9.20;84.40;;;;;;5029121;28;20046;-86
2022/03/16 09:26:08;;;;;;;58.03;37.05;;;9.30;84.50;;;;;;5019810;28;20557;-86
2022/03/16 09:28:35;;;;;;;58.13;34.90;;;9.30;84.50;;;;;;5017704;28;20518;-86
2022/03/16 09:31:02;;;;;;;53.22;36.45;;;9.30;84.40;;;;;;5017093;28;20057;-86
2022/03/16 09:33:30;;;;;;;66.07;37.30;;;9.40;84.40;;;;;;5014440;28;20518;-86
2022/03/16 09:35:57;;;;;;;58.10;36.47;;;9.40;84.40;;;;;;5016576;28;20120;-85
2022/03/16 09:38:24;;;;;;;60.58;36.28;;;9.40;84.40;;;;;;5018685;28;20100;-85
2022/03/16 09:40:57;;;;;;;57.67;36.35;;;9.40;84.30;;;;;;5018221;28;20049;-86
2022/03/16 09:43:24;;;;;;;55.65;36.45;;;9.40;84.30;;;;;;5019536;28;20049;-86
2022/03/16 09:46:09;;;;;;;60.55;35.35;;;9.40;84.30;;;;;;5028360;28;20052;-85
2022/03/16 09:48:39;;;;;;;57.13;35.70;;;9.40;84.30;;;;;;5014627;28;20103;-86
2022/03/16 09:51:10;;;;;;;52.72;34.00;;;9.40;84.30;;;;;;5029303;28;20111;-86
2022/03/16 09:53:38;;;;;;;57.15;34.67;;;9.50;84.30;;;;;;5049475;28;20056;-85
2022/03/16 09:56:05;;;;;;;56.55;34.95;;;9.50;84.20;;;;;;5017837;28;20521;-86
2022/03/16 09:58:32;;;;;;;53.10;34.33;;;9.50;84.20;;;;;;5017487;28;20038;-86
2022/03/16 10:01:00;;;;;;;58.35;33.63;;;9.50;84.20;;;;;;5017705;28;20115;-86
2022/03/16 10:03:30;;;;;;;59.15;36.40;;;9.50;84.20;;;;;;5013365;28;20045;-85
2022/03/16 10:05:58;;;;;;;58.53;36.25;;;9.50;84.20;;;;;;5015938;28;20571;-86
2022/03/16 10:08:34;;;;;;;58.28;35.05;;;9.60;84.20;;;;;;5027022;28;20493;-85
2022/03/16 10:13:57;;;;;;;58.88;35.67;;;9.60;84.10;;;;;;5016899;28;20108;-85
2022/03/16 10:16:24;;;;;;;54.63;34.90;;;9.60;84.10;;;;;;5017781;28;20510;-85
2022/03/16 10:18:57;;;;;;;55.85;33.85;;;9.60;84.10;;;;;;5014601;28;20617;-86
2022/03/16 10:21:24;;;;;;;54.72;35.15;;;9.60;84.10;;;;;;5014030;28;20068;-85
2022/03/16 10:24:02;;;;;;;55.35;35.15;;;9.60;84.10;;;;;;5028426;28;20049;-86
2022/03/16 10:26:29;;;;;;;56.25;34.58;;;9.70;84.00;;;;;;5027385;28;20053;-86
2022/03/16 10:29:03;;;;;;;56.97;35.40;;;9.60;84.00;;;;;;5025041;28;20057;-85
2022/03/16 10:31:30;;;;;;;;;;;9.70;84.00;;;;;;5024059;28;20427;-85
2022/03/16 10:33:58;;;;;;;56.72;34.50;;;9.70;84.00;;;;;;5016890;28;19925;-86
2022/03/16 10:36:26;;;;;;;59.42;35.70;;;9.70;84.00;;;;;;5015757;28;20049;-85
2022/03/16 10:39:03;;;;;;;56.13;35.40;;;9.70;83.90;;;;;;5016762;28;20137;-87
2022/03/16 10:47:15;;;;;;;54.90;34.55;;;9.70;83.90;;;;;;5023164;28;20057;-86
2022/03/16 10:49:42;;;;;;;;;;;9.70;83.90;;;;;;5025073;28;20116;-86
2022/03/16 10:52:14;;;;;;;55.92;35.15;;;9.70;83.90;;;;;;5026174;28;19925;-86
2022/03/16 10:54:43;;;;;;;59.17;36.08;;;9.70;83.90;;;;;;5014356;28;20049;-86
2022/03/16 10:57:13;;;;;;;61.85;36.08;;;9.70;83.90;;;;;;5027590;28;20045;-86
2022/03/16 10:59:43;;;;;;;53.80;34.75;;;9.80;84.00;;;;;;5027868;28;20053;-85
2022/03/16 11:02:13;;;;;;;57.53;36.13;;;9.70;84.00;;;;;;5049760;28;20050;-86
2022/03/16 11:04:42;;;;;;;57.95;34.10;;;9.80;84.00;;;;;;5016929;28;20042;-86
2022/03/16 11:07:10;;;;;;;59.65;36.90;;;9.80;84.10;;;;;;5016799;28;20053;-86
2022/03/16 11:09:38;;;;;;;64.88;35.90;;;9.80;84.10;;;;;;5014103;28;20042;-86
2022/03/16 11:15:04;;;;;;;58.83;36.15;;;9.90;84.20;;;;;;5027932;28;20049;-86
2022/03/16 11:17:33;;;;;;;55.13;32.53;;;9.90;84.10;;;;;;5027227;28;20103;-86
2022/03/16 11:20:04;;;;;;;60.45;35.05;;;9.90;84.20;;;;;;5018916;28;20535;-86
2022/03/16 11:24:15;;;;;;;59.95;35.35;;;9.90;84.20;;;;;;5016597;28;20053;-86
2022/03/16 11:25:27;;;;;;;57.70;35.72;;;9.90;84.20;;;;;;5016618;28;20404;-85
2022/03/16 11:27:54;;;;;;;60.00;35.08;;;9.90;84.20;;;;;;5016145;28;20046;-83
2022/03/16 11:30:33;;;;;;;59.17;35.65;;;10.00;84.20;;;;;;5012015;28;20069;-85
2022/03/16 11:33:04;;;;;;;54.72;33.10;;;10.00;84.20;;;;;;5027616;28;20049;-85
2022/03/16 11:35:37;;;;;;;50.15;31.92;;;10.00;84.20;;;;;;5026842;28;20053;-85
2022/03/16 11:38:09;;;;;;;52.88;34.40;;;10.10;84.10;;;;;;5018733;28;20057;-84
2022/03/16 11:40:38;;;;;;;60.55;34.58;;;10.10;84.10;;;;;;5015928;28;20593;-84
2022/03/16 11:43:08;;;;;;;53.35;32.97;;;10.10;84.10;;;;;;5014595;28;20050;-84
2022/03/16 11:45:40;;;;;;;61.40;36.70;;;10.20;84.10;;;;;;5027654;28;20049;-84
2022/03/16 11:48:36;;;;;;;67.13;37.05;;;10.20;84.10;;;;;;5014123;28;20049;-84
2022/03/16 11:51:11;;;;;;;51.10;32.33;;;10.20;84.10;;;;;;5013795;28;20132;-84
2022/03/16 11:56:23;;;;;;;54.33;33.83;;;10.30;84.10;;;;;;5027568;28;20053;-83
2022/03/16 11:59:02;;;;;;;45.85;31.35;;;10.30;84.00;;;;;;5023863;28;20050;-84
2022/03/16 12:01:33;;;;;;;49.95;32.58;;;10.40;83.90;;;;;;5019945;28;20050;-83
2022/03/16 12:04:19;;;;;;;57.20;33.60;;;10.40;83.90;;;;;;5019797;28;20111;-84
2022/03/16 12:07:02;;;;;;;54.50;34.58;;;10.40;83.90;;;;;;5018650;28;20049;-84
2022/03/16 12:09:45;;;;;;;58.40;34.40;;;10.40;83.80;;;;;;5016078;28;20108;-84
2022/03/16 12:12:51;;;;;;;57.05;34.30;;;10.50;83.80;;;;;;5016911;28;20050;-84
2022/03/16 12:15:34;;;;;;;58.03;35.85;;;10.50;83.80;;;;;;5032260;28;20053;-83
2022/03/16 12:18:01;;;;;;;52.95;33.53;;;10.50;83.80;;;;;;5030397;28;20045;-84
2022/03/16 12:20:40;;;;;;;54.72;33.45;;;10.60;83.80;;;;;;5020326;28;20058;-84
2022/03/16 12:23:15;;;;;;;45.67;31.98;;;10.60;83.70;;;;;;5019692;28;20503;-84
2022/03/16 12:25:52;;;;;;;55.08;33.60;;;10.60;83.70;;;;;;5019021;28;20411;-83
2022/03/16 12:31:12;;;;;;;45.03;30.92;;;10.70;83.60;;;;;;5017413;28;20057;-85
2022/03/16 12:33:42;;;;;;;52.33;34.03;;;10.70;83.60;;;;;;5030801;28;20046;-83
2022/03/16 12:36:12;;;;;;;48.75;31.33;;;10.80;83.50;;;;;;5017125;28;20513;-83
2022/03/16 12:38:47;;;;;;;46.20;30.98;;;10.80;83.50;;;;;;5018964;28;20055;-83
2022/03/16 12:44:07;;;;;;;55.10;34.00;;;10.90;83.50;;;;;;5025426;28;20049;-83
2022/03/16 12:46:52;;;;;;;54.40;34.08;;;10.90;83.40;;;;;;5027562;28;20052;-84
2022/03/16 12:49:21;;;;;;;52.55;34.05;;;10.90;83.40;;;;;;5027478;28;20054;-83
2022/03/16 12:51:54;;;;;;;58.70;35.33;;;10.90;83.40;;;;;;5016329;28;20046;-83
2022/03/16 12:58:02;;;;;;;46.30;30.77;;;11.00;83.40;;;;;;5029478;28;20583;-84
2022/03/16 13:00:38;;;;;;;53.33;33.30;;;11.00;83.30;;;;;;5015112;28;20579;-84
2022/03/16 13:03:15;;;;;;;50.70;32.78;;;11.00;83.30;;;;;;5016926;28;20388;-84
2022/03/16 13:05:42;;;;;;;52.90;33.38;;;11.10;83.20;;;;;;5017661;28;20054;-84